»·PEaware :: AAY383 KLAS-KSNA

AAY383 :: KLAS-KSNA

FLIGHT INFORMATION

Flight Status: Arrived
Operator:
Allegiant Air
More flights by this operator :: More flights under this callsign
Pilot: David C. (16084)
Aircraft: AIRBUS A321
(A321)
More flights by this aircraft type
Origin: KLAS McCarran Intl
United States
Destination: KSNA John Wayne-Orange Co
United States
More flights between these airports :: More routes between these airports
Route: BOACH8 WHIGG FEYLA DSNEE4
File this flight plan on PilotEdge
Remarks:
Altitude:
(Current/Filed)
26,000ft
Speed:
(Current/Filed)
421kts
Departed: 07-Jan-21 11:57 AM
Arrived: 07-Jan-21 12:36 PM
Distance/Time
Traveled:
196nm/0:39
Distance/Time
To Go:
Arrived

Flight Plot

Page will automatically refresh every two minutes.

Flight plan parsing failed; only flown route is shown


Map Options




Map Legend


Flown Route
Filed Route
Departure Airport
Arrival Airport
Navaid (VOR, NDB)
Fix

Horizontal Profiles

Position Reports

Time Latitude Longitude Heading Altitude Ground
Speed
07-Jan-21 11:22 36.085748 -115.154692 0 2187ft 0kts
07-Jan-21 11:23 36.085748 -115.154692 146 2187ft 0kts
07-Jan-21 11:24 36.085748 -115.154692 146 2187ft 0kts
07-Jan-21 11:25 36.085748 -115.154692 146 2187ft 0kts
07-Jan-21 11:26 36.085748 -115.154692 146 2187ft 0kts
07-Jan-21 11:27 36.085748 -115.154692 146 2187ft 0kts
07-Jan-21 11:28 36.085748 -115.154692 146 2187ft 0kts
07-Jan-21 11:29 36.085748 -115.154692 146 2187ft 0kts
07-Jan-21 11:30 36.085748 -115.154692 146 2187ft 0kts
07-Jan-21 11:30 36.085748 -115.154692 146 2187ft 0kts
07-Jan-21 11:32 36.085748 -115.154692 146 2187ft 0kts
07-Jan-21 11:33 36.085748 -115.154692 146 2187ft 0kts
07-Jan-21 11:33 36.085748 -115.154692 146 2187ft 0kts
07-Jan-21 11:35 36.085748 -115.154692 146 2187ft 0kts
07-Jan-21 11:36 36.085748 -115.154692 146 2187ft 0kts
07-Jan-21 11:36 36.085748 -115.154692 146 2187ft 0kts
07-Jan-21 11:37 36.085748 -115.154692 146 2187ft 0kts
07-Jan-21 11:38 36.085748 -115.154692 146 2187ft 0kts
07-Jan-21 11:39 36.085748 -115.154692 146 2187ft 0kts
07-Jan-21 11:40 36.085748 -115.154692 146 2187ft 0kts
07-Jan-21 11:41 36.085748 -115.154692 146 2187ft 0kts
07-Jan-21 11:42 36.085748 -115.154692 146 2187ft 0kts
07-Jan-21 11:43 36.085748 -115.154692 146 2187ft 0kts
07-Jan-21 11:44 36.085748 -115.154692 146 2187ft 0kts
07-Jan-21 11:45 36.085797 -115.154736 168 2187ft 1kts
07-Jan-21 11:46 36.086290 -115.154970 182 2187ft 1kts
07-Jan-21 11:47 36.086348 -115.154964 183 2187ft 0kts
07-Jan-21 11:48 36.086348 -115.154964 183 2187ft 0kts
07-Jan-21 11:49 36.086348 -115.154964 183 2187ft 0kts
07-Jan-21 11:50 36.086348 -115.154964 183 2187ft 0kts
07-Jan-21 11:51 36.086590 -115.155289 11 2187ft 7kts
07-Jan-21 11:52 36.089922 -115.155053 0 2187ft 14kts
07-Jan-21 11:53 36.093638 -115.154149 25 2187ft 16kts
07-Jan-21 11:54 36.097871 -115.152410 304 2187ft 0kts
07-Jan-21 11:55 36.097974 -115.152604 300 2187ft 5kts
07-Jan-21 11:56 36.089920 -115.158461 205 2188ft 130kts
07-Jan-21 11:57 36.044638 -115.184509 204 3767ft 207kts
07-Jan-21 11:58 35.997603 -115.239875 243 5672ft 272kts
07-Jan-21 11:59 35.948261 -115.305730 184 7219ft 286kts
07-Jan-21 12:00 35.868368 -115.313493 183 10345ft 295kts
07-Jan-21 12:01 35.784959 -115.306841 174 13021ft 310kts
07-Jan-21 12:02 35.694549 -115.297958 187 14647ft 354kts
07-Jan-21 12:03 35.616460 -115.376910 230 16208ft 386kts
07-Jan-21 12:04 35.543352 -115.475937 231 18502ft 398kts
07-Jan-21 12:05 35.467807 -115.577539 232 20604ft 409kts
07-Jan-21 12:06 35.389463 -115.683254 232 22596ft 418kts
07-Jan-21 12:07 35.311027 -115.788814 232 24440ft 425kts
07-Jan-21 12:08 35.230901 -115.895996 233 26127ft 432kts
07-Jan-21 12:09 35.143706 -116.007059 230 26263ft 474kts
07-Jan-21 12:10 35.051667 -116.122517 230 26261ft 475kts
07-Jan-21 12:11 34.959454 -116.238164 230 26269ft 474kts
07-Jan-21 12:12 34.869161 -116.350941 229 26277ft 473kts
07-Jan-21 12:13 34.778296 -116.466549 229 26265ft 472kts
07-Jan-21 12:14 34.689137 -116.577545 225 26252ft 443kts
07-Jan-21 12:15 34.598780 -116.667100 222 26242ft 400kts
07-Jan-21 12:16 34.513705 -116.750601 223 22835ft 393kts
07-Jan-21 12:17 34.436069 -116.838917 226 19621ft 370kts
07-Jan-21 12:18 34.364254 -116.922161 225 16703ft 353kts
07-Jan-21 12:19 34.294580 -117.002517 225 14758ft 340kts
07-Jan-21 12:20 34.217764 -117.069503 212 14001ft 347kts
07-Jan-21 12:21 34.133031 -117.123402 204 12945ft 343kts
07-Jan-21 12:22 34.045509 -117.170104 204 12816ft 346kts
07-Jan-21 12:23 33.970281 -117.232156 230 11484ft 316kts
07-Jan-21 12:24 33.915082 -117.310545 230 10102ft 298kts
07-Jan-21 12:25 33.863207 -117.383635 230 8933ft 277kts
07-Jan-21 12:26 33.819037 -117.454916 265 7844ft 256kts
07-Jan-21 12:27 33.827735 -117.537847 278 6698ft 247kts
07-Jan-21 12:28 33.833227 -117.619751 269 5505ft 241kts
07-Jan-21 12:29 33.833024 -117.694384 268 4445ft 201kts
07-Jan-21 12:30 33.832908 -117.753438 267 3532ft 169kts
07-Jan-21 12:31 33.801106 -117.789443 207 2701ft 166kts
07-Jan-21 12:32 33.764512 -117.812460 208 1920ft 140kts
07-Jan-21 12:33 33.730576 -117.833970 209 1172ft 137kts
07-Jan-21 12:34 33.697144 -117.855124 208 454ft 135kts
07-Jan-21 12:35 33.671417 -117.871575 208 65ft 34kts
07-Jan-21 12:36 33.669198 -117.871585 116 65ft 0kts
07-Jan-21 12:37 33.671619 -117.868465 31 65ft 27kts
07-Jan-21 12:38 33.677738 -117.864212 27 65ft 24kts
07-Jan-21 12:39 33.678320 -117.863087 115 65ft 0kts
07-Jan-21 12:40 33.678320 -117.863087 115 65ft 0kts

Navigation Log

Ident Type
Flight plan parsing failed, navigation log unavailable